Adams Cove, New York
Current Conditions -  °F | °C
As of 9:56 PM on Tuesday 25 Nov 2014 (Local Time) from KART Reporting Station
Overcast Overcast  
Wind Chill: -2°   Ceiling: 5500
Heat Index:   Visibility: 10mi
Dew Point: -5°   Wind: 22mph
Humidity: 53%   Direction: 270°W
Pressure: 30.14"   Gusts: 30mph
Location:  44.0116°N, 76.0789°W
Report Text: KART 260256Z AUTO 27019G26KT 10SM FEW042 OVC055 04/M05 A3014 RMK AO2 PK WND 27026/0255 SLP210 60000 T00391050 51036
Loading
Personal Weather Stations






























Interactive Weather Map New forecast layout! Learn more

10-Day Weather Forecast

Advertisements
Track Severe Weather on mobile